createdAt,value
2023-05-18T00:01:12.192Z,103119.47
2023-05-18T00:03:38.950Z,103113.81
2023-05-18T00:06:07.157Z,103116.88
2023-05-18T00:08:34.716Z,103113.84
2023-05-18T00:11:02.532Z,103115.66
2023-05-18T00:13:29.520Z,103118.91
2023-05-18T00:15:56.383Z,103116.28
2023-05-18T00:18:23.823Z,103113.66
2023-05-18T00:21:00.611Z,103108.59
2023-05-18T00:23:30.828Z,103114.88
2023-05-18T00:25:58.460Z,103119.94
2023-05-18T00:28:25.343Z,103114.09
2023-05-18T00:30:51.878Z,103113.50
2023-05-18T00:33:18.338Z,103111.47
2023-05-18T00:35:44.842Z,103112.28
2023-05-18T00:38:12.183Z,103107.22
2023-05-18T00:40:42.176Z,103113.31
2023-05-18T00:43:08.645Z,103115.09
2023-05-18T00:45:35.128Z,103118.16
2023-05-18T00:48:01.629Z,103118.97
2023-05-18T00:50:28.298Z,103119.97
2023-05-18T00:52:54.911Z,103114.31
2023-05-18T00:55:21.333Z,103113.91
2023-05-18T00:57:48.236Z,103116.75
2023-05-18T01:00:16.022Z,103114.53
2023-05-18T01:02:43.003Z,103116.16
2023-05-18T01:05:11.038Z,103121.41
2023-05-18T01:07:44.552Z,103127.28
2023-05-18T01:10:12.367Z,103121.03
2023-05-18T01:12:57.333Z,103123.25
2023-05-18T01:15:29.873Z,103114.16
2023-05-18T01:18:14.790Z,103116.97
2023-05-18T01:20:49.940Z,103119.59
2023-05-18T01:23:35.572Z,103120.22
2023-05-18T01:26:25.012Z,103122.03
2023-05-18T01:28:51.845Z,103116.97
2023-05-18T01:31:18.516Z,103118.78
2023-05-18T01:33:45.200Z,103132.94
2023-05-18T01:36:11.745Z,103127.47
2023-05-18T01:38:38.563Z,103129.09
2023-05-18T01:41:18.909Z,103128.72
2023-05-18T01:44:15.909Z,103124.66
2023-05-18T01:47:00.003Z,103132.53
2023-05-18T01:49:39.148Z,103126.50
2023-05-18T01:52:16.736Z,103130.34
2023-05-18T01:54:45.126Z,103124.47
2023-05-18T01:57:11.810Z,103132.16
2023-05-18T01:59:38.636Z,103124.66
2023-05-18T02:02:05.678Z,103123.66
2023-05-18T02:04:32.276Z,103122.47
2023-05-18T02:06:58.995Z,103134.97
2023-05-18T02:09:25.552Z,103125.28
2023-05-18T02:11:51.975Z,103130.34
2023-05-18T02:14:18.401Z,103135.38
2023-05-18T02:16:47.165Z,103120.84
2023-05-18T02:19:14.909Z,103120.44
2023-05-18T02:21:43.389Z,103128.31
2023-05-18T02:24:09.833Z,103137.41
2023-05-18T02:26:37.517Z,103126.09
2023-05-18T02:29:06.400Z,103125.88
2023-05-18T02:31:32.974Z,103131.16
2023-05-18T02:33:59.464Z,103122.66
2023-05-18T02:36:25.982Z,103128.50
2023-05-18T02:38:52.506Z,103124.47
2023-05-18T02:41:18.944Z,103124.47
2023-05-18T02:43:45.399Z,103125.88
2023-05-18T02:46:11.834Z,103137.00
2023-05-18T02:48:38.285Z,103122.47
2023-05-18T02:51:04.925Z,103132.97
2023-05-18T02:53:31.438Z,103128.91
2023-05-18T02:55:57.920Z,103131.94
2023-05-18T02:58:25.663Z,103128.09
2023-05-18T03:00:55.114Z,103130.72
2023-05-18T03:03:21.863Z,103126.91
2023-05-18T03:05:48.430Z,103133.16
2023-05-18T03:08:14.883Z,103135.16
2023-05-18T03:10:41.322Z,103126.47
2023-05-18T03:13:07.779Z,103124.25
2023-05-18T03:15:34.170Z,103127.28
2023-05-18T03:18:00.908Z,103125.44
2023-05-18T03:20:28.022Z,103125.63
2023-05-18T03:22:54.551Z,103128.47
2023-05-18T03:25:22.515Z,103122.41
2023-05-18T03:27:48.952Z,103121.19
2023-05-18T03:30:15.601Z,103125.59
2023-05-18T03:32:42.115Z,103132.66
2023-05-18T03:35:08.962Z,103134.69
2023-05-18T03:37:35.415Z,103130.63
2023-05-18T03:40:11.026Z,103124.38
2023-05-18T03:42:38.246Z,103133.25
2023-05-18T03:45:05.067Z,103137.09
2023-05-18T03:47:31.527Z,103131.03
2023-05-18T03:49:58.016Z,103135.25
2023-05-18T03:52:24.476Z,103135.69
2023-05-18T03:54:51.392Z,103138.28
2023-05-18T03:57:18.463Z,103137.03
2023-05-18T03:59:45.426Z,103137.22
2023-05-18T04:02:12.167Z,103147.34
2023-05-18T04:04:42.034Z,103149.97
2023-05-18T04:07:08.827Z,103143.09
2023-05-18T04:09:36.201Z,103146.72
2023-05-18T04:12:03.133Z,103149.53
2023-05-18T04:14:32.979Z,103149.91
2023-05-18T04:17:04.876Z,103150.75
2023-05-18T04:19:32.941Z,103160.00
2023-05-18T04:21:59.616Z,103150.09
2023-05-18T04:24:28.560Z,103155.34
2023-05-18T04:26:54.990Z,103157.78
2023-05-18T04:29:22.390Z,103155.38
2023-05-18T04:31:48.935Z,103159.44
2023-05-18T04:34:17.936Z,103163.28
2023-05-18T04:36:44.989Z,103169.13
2023-05-18T04:39:12.270Z,103159.28
2023-05-18T04:41:42.182Z,103164.09
2023-05-18T04:44:09.558Z,103163.91
2023-05-18T04:46:39.721Z,103173.22
2023-05-18T04:49:06.303Z,103171.38
2023-05-18T04:51:34.569Z,103174.22
2023-05-18T04:54:03.221Z,103179.28
2023-05-18T04:56:29.905Z,103173.84
2023-05-18T04:58:59.379Z,103172.03
2023-05-18T05:01:26.126Z,103167.19
2023-05-18T05:03:52.757Z,103173.88
2023-05-18T05:06:19.231Z,103176.53
2023-05-18T05:08:45.887Z,103173.72
2023-05-18T05:11:12.360Z,103170.28
2023-05-18T05:13:38.850Z,103171.53
2023-05-18T05:16:06.026Z,103177.75
2023-05-18T05:18:32.546Z,103179.19
2023-05-18T05:20:59.673Z,103182.22
2023-05-18T05:23:26.233Z,103181.84
2023-05-18T05:25:52.678Z,103187.06
2023-05-18T05:28:19.107Z,103180.44
2023-05-18T05:30:45.605Z,103171.97
2023-05-18T05:33:12.055Z,103177.81
2023-05-18T05:35:38.729Z,103180.47
2023-05-18T05:38:06.259Z,103183.88
2023-05-18T05:40:32.690Z,103179.03
2023-05-18T05:42:59.107Z,103180.88
2023-05-18T05:45:28.414Z,103174.19
2023-05-18T05:47:55.220Z,103178.00
2023-05-18T05:50:21.702Z,103193.19
2023-05-18T05:52:48.126Z,103189.94
2023-05-18T05:55:14.554Z,103189.94
2023-05-18T05:57:42.739Z,103190.94
2023-05-18T06:00:13.210Z,103186.09
2023-05-18T06:02:40.161Z,103198.44
2023-05-18T06:05:07.701Z,103194.16
2023-05-18T06:07:34.775Z,103190.72
2023-05-18T06:10:01.271Z,103192.38
2023-05-18T06:12:27.727Z,103191.75
2023-05-18T06:14:58.100Z,103189.53
2023-05-18T06:17:25.905Z,103193.97
2023-05-18T06:19:52.652Z,103201.66
2023-05-18T06:22:19.163Z,103202.03
2023-05-18T06:24:45.704Z,103195.75
2023-05-18T06:27:12.409Z,103205.03
2023-05-18T06:29:38.874Z,103210.91
2023-05-18T06:32:06.121Z,103203.84
2023-05-18T06:34:32.823Z,103205.25
2023-05-18T06:36:59.285Z,103210.50
2023-05-18T06:39:26.860Z,103214.53
2023-05-18T06:41:53.306Z,103210.66
2023-05-18T06:44:19.786Z,103212.09
2023-05-18T06:46:47.586Z,103212.66
2023-05-18T06:49:13.993Z,103218.50
2023-05-18T06:51:41.579Z,103220.16
2023-05-18T06:54:08.487Z,103214.69
2023-05-18T06:56:34.958Z,103215.69
2023-05-18T06:59:01.456Z,103220.16
2023-05-18T07:01:28.024Z,103222.16
2023-05-18T07:03:54.474Z,103219.72
2023-05-18T07:06:21.017Z,103229.00
2023-05-18T07:08:47.945Z,103228.63
2023-05-18T07:11:14.809Z,103231.44
2023-05-18T07:13:42.182Z,103233.50
2023-05-18T07:16:08.748Z,103227.00
2023-05-18T07:18:35.369Z,103228.03
2023-05-18T07:21:01.849Z,103227.78
2023-05-18T07:23:28.670Z,103232.63
2023-05-18T07:25:55.140Z,103235.78
2023-05-18T07:28:22.220Z,103223.75
2023-05-18T07:30:48.820Z,103220.28
2023-05-18T07:33:15.370Z,103235.09
2023-05-18T07:35:41.823Z,103231.66
2023-05-18T07:38:08.323Z,103239.00
2023-05-18T07:40:35.058Z,103230.88
2023-05-18T07:43:01.547Z,103227.19
2023-05-18T07:45:28.207Z,103229.38
2023-05-18T07:47:55.218Z,103238.03
2023-05-18T07:50:21.841Z,103234.22
2023-05-18T07:52:48.287Z,103245.06
2023-05-18T07:55:14.717Z,103231.91
2023-05-18T07:57:41.237Z,103233.66
2023-05-18T08:00:09.538Z,103238.06
2023-05-18T08:02:36.098Z,103238.09
2023-05-18T08:05:02.796Z,103240.78
2023-05-18T08:07:29.963Z,103245.06
2023-05-18T08:09:57.055Z,103240.69
2023-05-18T08:12:24.462Z,103238.81
2023-05-18T08:14:51.385Z,103243.88
2023-05-18T08:17:19.535Z,103228.44
2023-05-18T08:19:47.372Z,103231.34
2023-05-18T08:22:14.935Z,103232.63
2023-05-18T08:24:41.611Z,103233.88
2023-05-18T08:27:09.908Z,103235.69
2023-05-18T08:29:36.339Z,103229.94
2023-05-18T08:32:02.826Z,103226.59
2023-05-18T08:34:30.104Z,103221.19
2023-05-18T08:36:56.631Z,103223.59
2023-05-18T08:39:23.040Z,103230.34
2023-05-18T08:42:17.661Z,103227.13
2023-05-18T08:44:49.044Z,103215.38
2023-05-18T08:47:16.631Z,103214.53
2023-05-18T08:49:43.388Z,103220.75
2023-05-18T08:52:10.398Z,103222.97
2023-05-18T08:54:37.770Z,103228.97
2023-05-18T08:57:09.435Z,103232.41
2023-05-18T08:59:41.100Z,103224.34
2023-05-18T09:02:08.081Z,103228.31
2023-05-18T09:04:35.258Z,103225.81
2023-05-18T09:07:03.647Z,103225.38
2023-05-18T09:09:30.744Z,103217.44
2023-05-18T09:11:57.356Z,103218.00
2023-05-18T09:14:25.954Z,103221.19
2023-05-18T09:16:53.424Z,103216.41
2023-05-18T09:19:20.156Z,103206.47
2023-05-18T09:21:46.977Z,103198.63
2023-05-18T09:24:13.854Z,103198.44
2023-05-18T09:26:40.630Z,103201.91
2023-05-18T09:29:19.087Z,103192.31
2023-05-18T09:31:46.777Z,103194.56
2023-05-18T09:34:14.183Z,103196.13
2023-05-18T09:36:40.808Z,103195.19
2023-05-18T09:39:11.028Z,103185.81
2023-05-18T09:41:39.731Z,103180.94
2023-05-18T09:44:09.627Z,103179.38
2023-05-18T09:46:39.935Z,103178.72
2023-05-18T09:49:07.149Z,103169.94
2023-05-18T09:51:37.690Z,103182.94
2023-05-18T09:54:07.416Z,103180.16
2023-05-18T09:56:37.622Z,103184.41
2023-05-18T09:59:11.748Z,103183.16
2023-05-18T10:01:45.583Z,103187.97
2023-05-18T10:04:12.057Z,103185.16
2023-05-18T10:06:38.549Z,103178.00
2023-05-18T10:09:15.579Z,103177.41
2023-05-18T10:11:42.105Z,103170.09
2023-05-18T10:14:11.273Z,103170.16
2023-05-18T10:16:38.144Z,103173.22
2023-05-18T10:19:06.347Z,103175.94
2023-05-18T10:21:34.358Z,103163.53
2023-05-18T10:24:03.851Z,103171.09
2023-05-18T10:26:30.725Z,103163.81
2023-05-18T10:28:59.578Z,103173.50
2023-05-18T10:31:27.925Z,103159.59
2023-05-18T10:33:54.713Z,103159.69
2023-05-18T10:36:22.431Z,103157.09
2023-05-18T10:38:49.405Z,103156.25
2023-05-18T10:41:18.825Z,103150.47
2023-05-18T10:43:45.983Z,103154.09
2023-05-18T10:46:13.885Z,103153.13
2023-05-18T10:48:40.847Z,103152.72
2023-05-18T10:51:08.039Z,103142.59
2023-05-18T10:53:34.837Z,103143.94
2023-05-18T10:56:01.625Z,103146.59
2023-05-18T10:58:29.795Z,103145.06
2023-05-18T11:00:58.918Z,103139.81
2023-05-18T11:03:27.074Z,103129.97
2023-05-18T11:06:05.235Z,103133.03
2023-05-18T11:08:31.768Z,103134.47
2023-05-18T11:11:07.497Z,103138.53
2023-05-18T11:13:35.668Z,103112.81
2023-05-18T11:16:05.045Z,103132.81
2023-05-18T11:18:43.844Z,103130.75
2023-05-18T11:21:29.460Z,103128.81
2023-05-18T11:24:16.345Z,103133.44
2023-05-18T11:26:44.718Z,103125.25
2023-05-18T11:29:23.020Z,103123.31
2023-05-18T11:31:52.056Z,103123.72
2023-05-18T11:34:35.496Z,103120.25
2023-05-18T11:37:03.813Z,103125.41
2023-05-18T11:39:30.384Z,103124.16
2023-05-18T11:42:08.549Z,103111.75
2023-05-18T11:44:35.284Z,103099.03
2023-05-18T11:47:09.319Z,103107.91
2023-05-18T11:49:44.853Z,103099.47
2023-05-18T11:52:22.377Z,103096.22
2023-05-18T11:55:01.214Z,103083.13
2023-05-18T11:57:33.637Z,103095.72
2023-05-18T12:00:01.423Z,103083.78
2023-05-18T12:02:32.233Z,103081.63
2023-05-18T12:05:00.751Z,103080.25
2023-05-18T12:07:28.377Z,103075.75
2023-05-18T12:10:04.941Z,103063.28
2023-05-18T12:12:31.646Z,103073.69
2023-05-18T12:14:59.678Z,103068.66
2023-05-18T12:17:42.712Z,103074.53
2023-05-18T12:20:11.990Z,103068.44
2023-05-18T12:22:52.880Z,103056.47
2023-05-18T12:25:20.168Z,103056.75
2023-05-18T12:27:48.083Z,103051.16
2023-05-18T12:30:22.166Z,103053.81
2023-05-18T12:32:50.881Z,103050.31
2023-05-18T12:35:17.974Z,103057.22
2023-05-18T12:37:46.271Z,103053.75
2023-05-18T12:40:17.998Z,103049.75
2023-05-18T12:42:57.348Z,103050.88
2023-05-18T12:45:28.308Z,103048.75
2023-05-18T12:47:56.192Z,103041.81
2023-05-18T12:50:24.942Z,103048.16
2023-05-18T12:52:51.640Z,103045.03
2023-05-18T12:55:21.806Z,103044.47
2023-05-18T12:58:14.488Z,103040.59
2023-05-18T13:00:43.475Z,103042.91
2023-05-18T13:03:15.779Z,103040.16
2023-05-18T13:05:44.681Z,103044.81
2023-05-18T13:08:22.145Z,103044.19
2023-05-18T13:10:58.103Z,103035.44
2023-05-18T13:13:32.121Z,103034.72
2023-05-18T13:15:59.510Z,103038.56
2023-05-18T13:18:28.697Z,103029.25
2023-05-18T13:20:56.489Z,103027.78
2023-05-18T13:23:29.956Z,103030.81
2023-05-18T13:25:58.686Z,103032.47
2023-05-18T13:28:25.499Z,103019.91
2023-05-18T13:30:51.957Z,103015.41
2023-05-18T13:33:19.269Z,103006.09
2023-05-18T13:35:46.312Z,103009.00
2023-05-18T13:38:13.776Z,103012.28
2023-05-18T13:40:41.131Z,103017.19
2023-05-18T13:43:08.232Z,103023.56
2023-05-18T13:45:36.109Z,103007.50
2023-05-18T13:48:09.378Z,103006.69
2023-05-18T13:50:36.765Z,103011.41
2023-05-18T13:53:03.374Z,103006.19
2023-05-18T13:55:29.977Z,102993.22
2023-05-18T13:57:56.912Z,102997.25
2023-05-18T14:00:23.377Z,102991.84
2023-05-18T14:02:49.947Z,102994.41
2023-05-18T14:05:16.528Z,102996.34
2023-05-18T14:07:43.128Z,102984.47
2023-05-18T14:10:10.914Z,102983.41
2023-05-18T14:12:37.577Z,102986.84
2023-05-18T14:15:04.883Z,102985.72
2023-05-18T14:17:32.420Z,102980.28
2023-05-18T14:19:59.351Z,102982.22
2023-05-18T14:22:26.305Z,102978.00
2023-05-18T14:24:53.151Z,102968.97
2023-05-18T14:27:22.949Z,102970.66
2023-05-18T14:29:50.459Z,102972.31
2023-05-18T14:32:17.518Z,102960.38
2023-05-18T14:34:43.933Z,102961.38
2023-05-18T14:37:10.615Z,102957.25
2023-05-18T14:39:37.809Z,102964.28
2023-05-18T14:42:05.089Z,102959.88
2023-05-18T14:44:31.672Z,102949.88
2023-05-18T14:46:58.207Z,102954.06
2023-05-18T14:49:24.737Z,102954.75
2023-05-18T14:51:51.278Z,102961.16
2023-05-18T14:54:19.061Z,102953.78
2023-05-18T14:56:45.673Z,102956.84
2023-05-18T14:59:12.194Z,102953.06
2023-05-18T15:01:38.733Z,102946.25
2023-05-18T15:04:05.463Z,102951.09
2023-05-18T15:06:33.244Z,102948.06
2023-05-18T15:08:59.872Z,102953.63
2023-05-18T15:11:26.415Z,102952.56
2023-05-18T15:13:52.907Z,102950.88
2023-05-18T15:16:19.917Z,102938.28
2023-05-18T15:18:47.087Z,102942.00
2023-05-18T15:21:13.583Z,102938.09
2023-05-18T15:23:40.051Z,102940.53
2023-05-18T15:26:08.920Z,102931.84
2023-05-18T15:28:35.921Z,102937.56
2023-05-18T15:31:02.423Z,102928.19
2023-05-18T15:33:28.962Z,102942.16
2023-05-18T15:35:55.592Z,102933.38
2023-05-18T15:38:22.081Z,102926.84
2023-05-18T15:40:50.333Z,102928.25
2023-05-18T15:43:16.947Z,102925.81
2023-05-18T15:45:43.402Z,102923.84
2023-05-18T15:48:09.884Z,102913.91
2023-05-18T15:50:36.346Z,102908.69
2023-05-18T15:53:02.795Z,102908.31
2023-05-18T15:55:29.259Z,102908.94
2023-05-18T15:57:55.759Z,102910.66
2023-05-18T16:00:23.704Z,102908.81
2023-05-18T16:02:50.309Z,102899.06
2023-05-18T16:05:16.850Z,102902.97
2023-05-18T16:07:43.715Z,102904.69
2023-05-18T16:10:10.420Z,102899.50
2023-05-18T16:12:36.877Z,102903.28
2023-05-18T16:15:03.337Z,102899.25
2023-05-18T16:17:29.858Z,102906.41
2023-05-18T16:19:56.669Z,102891.84
2023-05-18T16:22:23.120Z,102897.88
2023-05-18T16:24:49.795Z,102898.41
2023-05-18T16:27:16.282Z,102893.53
2023-05-18T16:29:42.782Z,102887.50
2023-05-18T16:32:09.285Z,102892.97
2023-05-18T16:34:35.724Z,102895.34
2023-05-18T16:37:02.214Z,102891.78
2023-05-18T16:39:28.652Z,102895.16
2023-05-18T16:41:55.123Z,102896.34
2023-05-18T16:44:21.577Z,102897.31
2023-05-18T16:46:48.180Z,102893.75
2023-05-18T16:49:14.696Z,102881.63
2023-05-18T16:51:49.961Z,102880.28
2023-05-18T16:54:16.497Z,102883.72
2023-05-18T16:56:43.004Z,102882.84
2023-05-18T16:59:09.422Z,102882.50
2023-05-18T17:01:35.906Z,102876.63
2023-05-18T17:04:02.533Z,102882.50
2023-05-18T17:06:29.092Z,102881.38
2023-05-18T17:08:58.078Z,102886.59
2023-05-18T17:11:26.842Z,102888.31
2023-05-18T17:13:53.604Z,102889.88
2023-05-18T17:16:21.620Z,102886.03
2023-05-18T17:18:48.811Z,102882.94
2023-05-18T17:21:15.907Z,102882.72
2023-05-18T17:23:42.374Z,102886.06
2023-05-18T17:26:08.859Z,102886.00
2023-05-18T17:28:35.520Z,102892.34
2023-05-18T17:31:02.018Z,102892.03
2023-05-18T17:33:28.426Z,102897.38
2023-05-18T17:35:55.135Z,102883.38
2023-05-18T17:38:22.628Z,102891.69
2023-05-18T17:40:49.152Z,102884.56
2023-05-18T17:43:15.651Z,102884.88
2023-05-18T17:45:42.197Z,102890.19
2023-05-18T17:48:08.847Z,102881.31
2023-05-18T17:50:37.531Z,102876.28
2023-05-18T17:53:04.837Z,102876.75
2023-05-18T17:55:31.561Z,102881.03
2023-05-18T17:58:00.837Z,102884.88
2023-05-18T18:00:27.435Z,102879.88
2023-05-18T18:02:55.123Z,102873.47
2023-05-18T18:05:21.685Z,102883.31
2023-05-18T18:07:48.140Z,102887.31
2023-05-18T18:10:14.603Z,102881.72
2023-05-18T18:12:41.097Z,102886.78
2023-05-18T18:15:07.988Z,102884.38
2023-05-18T18:17:34.555Z,102888.06
2023-05-18T18:20:01.084Z,102883.56
2023-05-18T18:22:27.816Z,102879.38
2023-05-18T18:24:55.508Z,102883.84
2023-05-18T18:27:23.040Z,102885.16
2023-05-18T18:29:49.544Z,102885.16
2023-05-18T18:32:16.625Z,102883.00
2023-05-18T18:34:43.023Z,102888.06
2023-05-18T18:37:09.486Z,102883.56
2023-05-18T18:39:35.948Z,102887.59
2023-05-18T18:42:02.586Z,102890.06
2023-05-18T18:44:29.049Z,102889.25
2023-05-18T18:46:55.665Z,102891.44
2023-05-18T18:49:22.182Z,102890.94
2023-05-18T18:51:48.730Z,102894.13
2023-05-18T18:54:15.202Z,102889.34
2023-05-18T18:56:43.852Z,102892.03
2023-05-18T18:59:10.361Z,102893.13
2023-05-18T19:01:38.484Z,102906.47
2023-05-18T19:04:05.021Z,102898.19
2023-05-18T19:06:31.996Z,102903.22
2023-05-18T19:08:58.473Z,102904.84
2023-05-18T19:11:24.950Z,102906.47
2023-05-18T19:13:51.537Z,102906.16
2023-05-18T19:16:18.237Z,102912.06
2023-05-18T19:18:45.155Z,102909.41
2023-05-18T19:21:11.750Z,102916.56
2023-05-18T19:23:38.166Z,102924.00
2023-05-18T19:26:04.634Z,102913.84
2023-05-18T19:28:31.483Z,102926.63
2023-05-18T19:30:57.944Z,102931.94
2023-05-18T19:33:24.377Z,102932.41
2023-05-18T19:35:52.741Z,102936.06
2023-05-18T19:38:19.390Z,102928.88
2023-05-18T19:40:45.869Z,102931.25
2023-05-18T19:43:12.353Z,102930.66
2023-05-18T19:45:38.888Z,102942.88
2023-05-18T19:48:05.569Z,102946.53
2023-05-18T19:50:32.068Z,102934.72
2023-05-18T19:52:58.472Z,102947.97
2023-05-18T19:55:24.862Z,102952.97
2023-05-18T19:57:51.342Z,102947.06
2023-05-18T20:00:18.072Z,102958.78
2023-05-18T20:02:44.555Z,102964.56
2023-05-18T20:05:12.523Z,102961.56
2023-05-18T20:07:39.306Z,102965.03
2023-05-18T20:10:06.033Z,102969.72
2023-05-18T20:12:32.486Z,102973.38
2023-05-18T20:14:59.119Z,102970.97
2023-05-18T20:17:25.902Z,102965.56
2023-05-18T20:19:53.399Z,102971.91
2023-05-18T20:22:20.311Z,102980.13
2023-05-18T20:24:46.947Z,102977.16
2023-05-18T20:27:14.603Z,102982.97
2023-05-18T20:29:41.345Z,102985.06
2023-05-18T20:32:07.781Z,102987.44
2023-05-18T20:34:34.637Z,102985.22
2023-05-18T20:37:01.116Z,102985.94
2023-05-18T20:39:29.055Z,102980.22
2023-05-18T20:41:57.583Z,102980.28
2023-05-18T20:44:24.912Z,102985.72
2023-05-18T20:46:53.043Z,102989.59
2023-05-18T20:49:22.285Z,102988.16
2023-05-18T20:51:49.119Z,102995.31
2023-05-18T20:54:17.812Z,102992.91
2023-05-18T20:56:44.443Z,102987.75
2023-05-18T20:59:12.607Z,102989.84
2023-05-18T21:01:40.002Z,102996.91
2023-05-18T21:04:07.136Z,102998.16
2023-05-18T21:06:34.337Z,102994.03
2023-05-18T21:09:01.392Z,103000.66
2023-05-18T21:11:27.990Z,103005.13
2023-05-18T21:13:54.405Z,103004.56
2023-05-18T21:16:21.135Z,103007.38
2023-05-18T21:18:47.594Z,103020.53
2023-05-18T21:21:14.012Z,103015.66
2023-05-18T21:23:40.469Z,103017.97
2023-05-18T21:26:06.952Z,103016.84
2023-05-18T21:28:34.531Z,103014.13
2023-05-18T21:31:01.190Z,103014.81
2023-05-18T21:33:27.661Z,103016.59
2023-05-18T21:35:54.221Z,103021.31
2023-05-18T21:38:20.759Z,103021.00
2023-05-18T21:40:47.229Z,103022.97
2023-05-18T21:43:13.706Z,103022.88
2023-05-18T21:45:40.545Z,103017.50
2023-05-18T21:48:07.807Z,103014.28
2023-05-18T21:50:34.926Z,103008.56
2023-05-18T21:53:03.120Z,103016.28
2023-05-18T21:55:31.161Z,103019.63
2023-05-18T21:57:57.686Z,103020.09
2023-05-18T22:00:24.106Z,103023.13
2023-05-18T22:02:50.612Z,103016.88
2023-05-18T22:05:18.522Z,103016.56
2023-05-18T22:07:46.042Z,103020.94
2023-05-18T22:10:12.654Z,103016.59
2023-05-18T22:12:41.042Z,103017.28
2023-05-18T22:15:08.659Z,103018.00
2023-05-18T22:17:36.591Z,103022.13
2023-05-18T22:20:06.439Z,103025.50
2023-05-18T22:22:32.907Z,103024.19
2023-05-18T22:24:59.338Z,103023.06
2023-05-18T22:27:25.913Z,103028.72
2023-05-18T22:29:52.316Z,103018.81
2023-05-18T22:32:19.270Z,103023.53
2023-05-18T22:34:45.817Z,103027.44
2023-05-18T22:37:12.234Z,103022.63
2023-05-18T22:39:38.685Z,103026.31
2023-05-18T22:42:05.350Z,103024.69
2023-05-18T22:44:31.762Z,103023.53
2023-05-18T22:46:58.701Z,103022.19
2023-05-18T22:49:25.160Z,103032.25
2023-05-18T22:51:52.560Z,103023.78
2023-05-18T22:54:19.051Z,103031.34
2023-05-18T22:56:45.559Z,103028.38
2023-05-18T22:59:12.063Z,103035.72
2023-05-18T23:01:38.698Z,103031.78
2023-05-18T23:04:05.345Z,103033.88
2023-05-18T23:06:31.952Z,103038.81
2023-05-18T23:09:00.463Z,103034.41
2023-05-18T23:11:28.481Z,103044.50
2023-05-18T23:13:55.053Z,103031.97
2023-05-18T23:16:22.535Z,103037.41
2023-05-18T23:18:50.526Z,103031.31
2023-05-18T23:21:17.086Z,103030.06
2023-05-18T23:23:45.530Z,103036.97
2023-05-18T23:26:12.511Z,103039.00
2023-05-18T23:28:38.947Z,103031.72
2023-05-18T23:31:05.431Z,103031.59
2023-05-18T23:33:32.214Z,103031.81
2023-05-18T23:36:02.397Z,103029.19
2023-05-18T23:38:34.583Z,103027.34
2023-05-18T23:41:02.732Z,103025.69
2023-05-18T23:43:29.400Z,103035.19
2023-05-18T23:45:56.767Z,103035.94
2023-05-18T23:48:24.059Z,103033.41
2023-05-18T23:50:53.271Z,103039.31
2023-05-18T23:53:21.804Z,103034.28
2023-05-18T23:55:49.601Z,103038.25
2023-05-18T23:58:17.721Z,103027.38
